Time;durP1;ratioP1;P1;durP2;ratioP2;P2;SDS_P1;SDS_P2;PMS_P1;PMS_P2;Temp;Humidity;BMP_temperature;BMP_pressure;BME280_temperature;BME280_humidity;BME280_pressure;Samples;Min_cycle;Max_cycle;Signal;HPM_P1;HPM_P2
2022/10/26 00:00:42;;;;;;;1999.90;999.90;;;;;;;7.05;100.00;100873.50;4992579;28;20034;-75
2022/10/26 00:03:07;;;;;;;1999.90;999.90;;;;;;;7.02;100.00;100869.09;4993835;28;20519;-75
2022/10/26 00:05:33;;;;;;;1999.90;999.90;;;;;;;6.98;100.00;100869.00;4993548;28;20042;-75
2022/10/26 00:07:59;;;;;;;1999.90;999.90;;;;;;;6.95;100.00;100875.09;4993896;28;20049;-76
2022/10/26 00:10:25;;;;;;;1999.90;999.90;;;;;;;6.93;100.00;100879.44;4993674;28;20065;-75
2022/10/26 00:12:51;;;;;;;1999.90;999.90;;;;;;;6.94;100.00;100881.22;4993739;28;20064;-75
2022/10/26 00:15:17;;;;;;;1999.90;999.90;;;;;;;6.93;100.00;100884.69;4993621;28;20093;-75
2022/10/26 00:17:43;;;;;;;1999.90;999.90;;;;;;;6.91;100.00;100882.91;4993478;28;20057;-75
2022/10/26 00:20:09;;;;;;;1999.90;999.90;;;;;;;6.88;100.00;100886.38;4993448;28;20109;-75
2022/10/26 00:22:34;;;;;;;1999.90;999.90;;;;;;;6.89;100.00;100888.16;4993249;28;20046;-75
2022/10/26 00:24:59;;;;;;;1999.90;999.90;;;;;;;6.86;100.00;100888.06;4993213;28;20405;-75
2022/10/26 00:27:25;;;;;;;1999.90;999.90;;;;;;;6.82;100.00;100891.53;4993275;28;20516;-75
2022/10/26 00:29:50;;;;;;;1999.90;999.90;;;;;;;6.87;100.00;100899.47;4993391;28;20505;-75
2022/10/26 00:32:15;;;;;;;1999.90;999.90;;;;;;;6.87;100.00;100884.59;4992787;28;20519;-76
2022/10/26 00:34:41;;;;;;;1999.90;999.90;;;;;;;6.83;100.00;100892.41;4992842;28;20042;-75
2022/10/26 00:37:06;;;;;;;1999.90;999.90;;;;;;;6.79;100.00;100891.50;4993133;28;20054;-75
2022/10/26 00:39:31;;;;;;;1999.90;999.90;;;;;;;6.77;100.00;100893.19;4993186;28;20034;-75
2022/10/26 00:41:57;;;;;;;1999.90;999.90;;;;;;;6.75;100.00;100890.53;4993321;28;20034;-75
2022/10/26 00:44:47;;;;;;;1999.90;999.90;;;;;;;6.71;100.00;100903.59;4993106;28;20042;-75
2022/10/26 00:47:30;;;;;;;1999.90;999.90;;;;;;;6.70;100.00;100893.97;4989375;28;20035;-75
2022/10/26 00:50:01;;;;;;;1999.90;999.90;;;;;;;6.72;100.00;100892.25;4992685;28;20452;-75
2022/10/26 00:52:27;;;;;;;1999.90;999.90;;;;;;;6.72;100.00;100895.75;4993131;28;20049;-75
2022/10/26 00:54:53;;;;;;;1999.90;999.90;;;;;;;6.70;100.00;100896.56;4993001;28;20049;-75
2022/10/26 00:57:19;;;;;;;1999.90;999.90;;;;;;;6.70;100.00;100888.72;4992606;28;20050;-75
2022/10/26 00:59:45;;;;;;;1999.90;999.90;;;;;;;6.70;100.00;100899.19;4992820;28;20129;-75
2022/10/26 01:02:11;;;;;;;1999.90;999.90;;;;;;;6.68;100.00;100900.91;4992879;28;20065;-75
2022/10/26 01:04:36;;;;;;;1999.90;999.90;;;;;;;6.67;100.00;100899.16;4992725;28;20523;-75
2022/10/26 01:07:03;;;;;;;1999.90;999.90;;;;;;;6.62;100.00;100898.19;4992530;28;20113;-75
2022/10/26 01:09:31;;;;;;;1999.90;999.90;;;;;;;6.62;100.00;100892.97;4992694;28;20041;-75
2022/10/26 01:11:56;;;;;;;1999.90;999.90;;;;;;;6.65;100.00;100898.25;4992688;28;20037;-75
2022/10/26 01:14:24;;;;;;;1999.90;999.90;;;;;;;6.66;100.00;100895.66;4992492;28;20039;-75
2022/10/26 01:17:11;;;;;;;1999.90;999.90;;;;;;;6.70;100.00;100891.34;4988404;28;20109;-75
2022/10/26 01:20:07;;;;;;;1999.90;999.90;;;;;;;6.66;100.00;100895.66;4992426;28;20038;-75
2022/10/26 01:22:41;;;;;;;1999.90;999.90;;;;;;;6.57;100.00;100890.25;4989568;28;20129;-75
2022/10/26 01:25:17;;;;;;;1999.90;999.90;;;;;;;6.51;100.00;100891.03;4992401;28;20477;-75
2022/10/26 01:27:49;;;;;;;1999.90;999.90;;;;;;;6.48;100.00;100901.50;4989448;28;20042;-75
2022/10/26 01:30:23;;;;;;;1999.90;999.90;;;;;;;6.44;100.00;100899.66;4991891;28;20042;-75
2022/10/26 01:33:09;;;;;;;1999.90;999.90;;;;;;;6.37;100.00;100889.94;4988566;28;20040;-75
2022/10/26 01:35:38;;;;;;;1999.90;999.90;;;;;;;6.36;100.00;100891.66;4991880;28;20053;-75
2022/10/26 01:38:10;;;;;;;1999.90;999.90;;;;;;;6.35;100.00;100889.03;4991536;28;20034;-75
2022/10/26 01:40:48;;;;;;;1999.90;999.90;;;;;;;6.37;100.00;100884.72;4991926;28;20050;-75
2022/10/26 01:43:15;;;;;;;1999.90;999.90;;;;;;;6.36;100.00;100885.53;4988995;28;20042;-75
2022/10/26 01:45:44;;;;;;;1999.90;999.90;;;;;;;6.35;100.00;100879.44;4991701;28;20034;-75
2022/10/26 01:48:12;;;;;;;1999.90;999.90;;;;;;;6.37;100.00;100871.59;4991913;28;20401;-75
2022/10/26 01:50:40;;;;;;;1999.90;999.90;;;;;;;6.35;100.00;100873.31;4991816;28;20148;-75
2022/10/26 01:53:06;;;;;;;1999.90;999.90;;;;;;;6.33;100.00;100869.78;4992047;28;20065;-75
2022/10/26 01:55:45;;;;;;;1999.90;999.90;;;;;;;6.33;100.00;100870.66;4991523;28;20046;-75
2022/10/26 01:58:30;;;;;;;1999.90;999.90;;;;;;;6.34;100.00;100879.38;4992018;28;20030;-75
2022/10/26 02:01:12;;;;;;;1999.90;999.90;;;;;;;6.34;100.00;100874.13;4991799;28;20452;-75
2022/10/26 02:04:06;;;;;;;1999.90;999.90;;;;;;;6.36;100.00;100875.06;4990080;28;20034;-75
2022/10/26 02:06:44;;;;;;;1999.90;999.90;;;;;;;6.35;100.00;100878.56;4990553;28;20046;-75
2022/10/26 02:09:26;;;;;;;1999.90;999.90;;;;;;;6.30;100.00;100875.84;4989070;28;20519;-75
2022/10/26 02:11:52;;;;;;;1999.90;999.90;;;;;;;6.27;100.00;100874.94;4988275;28;20110;-75
2022/10/26 02:14:32;;;;;;;1999.90;999.90;;;;;;;6.22;100.00;100881.81;4991611;28;20547;-76
2022/10/26 02:17:15;;;;;;;1999.90;999.90;;;;;;;6.20;100.00;100888.78;4991169;28;20038;-75
2022/10/26 02:19:43;;;;;;;;;;;;;;;6.21;100.00;100878.31;4992090;28;20077;-75
2022/10/26 02:22:20;;;;;;;1999.90;999.90;;;;;;;6.19;100.00;100876.53;4991670;28;19913;-75
2022/10/26 02:24:48;;;;;;;1999.90;999.90;;;;;;;6.22;100.00;100880.09;4991504;28;20041;-76
2022/10/26 02:27:21;;;;;;;1999.90;999.90;;;;;;;6.18;100.00;100878.25;4991471;28;20108;-75
2022/10/26 02:29:49;;;;;;;1999.90;999.90;;;;;;;6.18;100.00;100877.38;4989724;28;20038;-75
2022/10/26 02:32:16;;;;;;;1999.90;999.90;;;;;;;6.17;100.00;100878.25;4995558;28;20193;-75
2022/10/26 02:34:44;;;;;;;1999.90;999.90;;;;;;;6.16;100.00;100877.38;4995530;28;20046;-75
2022/10/26 02:37:13;;;;;;;1999.90;999.90;;;;;;;6.13;100.00;100878.19;4995239;28;20046;-75
2022/10/26 02:42:30;;;;;;;1999.90;999.90;;;;;;;6.05;100.00;100874.56;4973616;28;20112;-75
2022/10/26 02:45:01;;;;;;;1999.90;999.90;;;;;;;6.03;100.00;100871.03;4979212;28;20618;-75
2022/10/26 02:47:26;;;;;;;1999.90;999.90;;;;;;;6.02;100.00;100876.22;4974646;28;20482;-75
2022/10/26 02:49:53;;;;;;;1999.90;999.90;;;;;;;5.97;100.00;100870.00;4993840;28;20034;-77
2022/10/26 02:52:37;;;;;;;1999.90;999.90;;;;;;;5.97;100.00;100873.50;4995546;28;20037;-77
2022/10/26 02:55:24;;;;;;;1999.90;999.90;;;;;;;5.99;100.00;100884.91;4996626;28;20050;-77
2022/10/26 02:57:55;;;;;;;1999.90;999.90;;;;;;;5.99;100.00;100879.66;4995121;28;20035;-75
2022/10/26 03:00:20;;;;;;;1999.90;999.90;;;;;;;6.02;100.00;100874.47;4991462;28;20500;-75
2022/10/26 03:02:52;;;;;;;1999.90;999.90;;;;;;;5.99;100.00;100866.56;4995002;28;20042;-74
2022/10/26 03:05:26;;;;;;;1999.90;999.90;;;;;;;5.97;100.00;100870.88;4994949;28;20034;-76
2022/10/26 03:07:52;;;;;;;1999.90;999.90;;;;;;;6.00;100.00;100870.06;4991747;28;20042;-77
2022/10/26 03:10:18;;;;;;;1999.90;999.90;;;;;;;6.04;100.00;100862.28;4994990;28;20031;-77
2022/10/26 03:12:43;;;;;;;1999.90;999.90;;;;;;;6.06;100.00;100855.34;4994988;28;20045;-75
2022/10/26 03:15:09;;;;;;;1999.90;999.90;;;;;;;6.10;100.00;100862.41;4994693;28;20030;-74
2022/10/26 03:17:34;;;;;;;1999.90;999.90;;;;;;;6.13;100.00;100867.72;4994609;28;20070;-74
2022/10/26 03:19:59;;;;;;;1999.90;999.90;;;;;;;6.15;100.00;100863.34;5001086;28;20049;-75
2022/10/26 03:22:25;;;;;;;1999.90;999.90;;;;;;;6.14;100.00;100864.22;4994900;28;20042;-75
2022/10/26 03:24:50;;;;;;;1999.90;999.90;;;;;;;6.04;100.00;100867.53;4994589;28;20046;-74
2022/10/26 03:27:15;;;;;;;1999.90;999.90;;;;;;;5.97;100.00;100870.00;4994391;28;20049;-75
2022/10/26 03:29:41;;;;;;;1999.90;999.90;;;;;;;5.99;100.00;100868.31;4994308;28;20034;-75
2022/10/26 03:32:06;;;;;;;1999.90;999.90;;;;;;;6.02;100.00;100858.75;4994745;28;20068;-77
2022/10/26 03:34:32;;;;;;;1999.90;999.90;;;;;;;6.03;100.00;100860.53;4994212;28;20038;-75
2022/10/26 03:36:57;;;;;;;1999.90;999.90;;;;;;;6.03;100.00;100863.16;4993825;28;20050;-75
2022/10/26 03:39:22;;;;;;;1999.90;999.90;;;;;;;6.03;100.00;100864.91;4991741;28;20030;-75
2022/10/26 03:41:48;;;;;;;1999.90;999.90;;;;;;;5.99;100.00;100858.72;4993732;28;20125;-75
2022/10/26 03:44:13;;;;;;;1999.90;999.90;;;;;;;5.98;100.00;100866.56;4994190;28;20089;-75
2022/10/26 03:46:38;;;;;;;1999.90;999.90;;;;;;;5.96;100.00;100869.13;4994403;28;20117;-75
2022/10/26 03:49:04;;;;;;;1999.90;999.90;;;;;;;5.96;100.00;100860.41;5007070;28;20105;-75
2022/10/26 03:51:29;;;;;;;1999.90;999.90;;;;;;;6.00;100.00;100864.81;4994767;28;20105;-75
2022/10/26 03:53:55;;;;;;;1999.90;999.90;;;;;;;6.02;100.00;100856.13;5000594;28;20026;-74
2022/10/26 03:56:20;;;;;;;1999.90;999.90;;;;;;;6.01;100.00;100862.25;4996155;28;20042;-74
2022/10/26 03:58:45;;;;;;;1999.90;999.90;;;;;;;5.99;100.00;100863.94;4993492;28;20034;-74
2022/10/26 04:01:11;;;;;;;1999.90;999.90;;;;;;;5.96;100.00;100869.13;4993880;28;20121;-74
2022/10/26 04:03:36;;;;;;;1999.90;999.90;;;;;;;5.94;100.00;100862.97;4995480;28;20078;-75
2022/10/26 04:06:02;;;;;;;1999.90;999.90;;;;;;;5.94;100.00;100868.22;4996400;28;20030;-75
2022/10/26 04:08:27;;;;;;;1999.90;999.90;;;;;;;5.88;100.00;100871.59;4993660;28;20082;-75
2022/10/26 04:10:53;;;;;;;1999.90;999.90;;;;;;;5.90;100.00;100874.25;4993759;28;20034;-75
2022/10/26 04:13:18;;;;;;;1999.90;999.90;;;;;;;5.92;100.00;100872.50;4993758;28;20038;-75
2022/10/26 04:15:43;;;;;;;1999.90;999.90;;;;;;;5.94;100.00;100876.09;4993346;28;20031;-75
2022/10/26 04:18:11;;;;;;;1999.90;999.90;;;;;;;5.96;100.00;100881.38;4993585;28;20603;-75
2022/10/26 04:20:38;;;;;;;1999.90;999.90;;;;;;;5.93;100.00;100882.16;4994602;28;20038;-75
2022/10/26 04:23:10;;;;;;;1999.90;999.90;;;;;;;5.91;100.00;100874.25;4990976;28;20104;-75
2022/10/26 04:25:36;;;;;;;1999.90;999.90;;;;;;;5.91;100.00;100873.38;4991640;28;20096;-75
2022/10/26 04:28:03;;;;;;;1999.90;999.90;;;;;;;5.89;100.00;100872.47;4990742;28;20042;-75
2022/10/26 04:30:29;;;;;;;1999.90;999.90;;;;;;;5.85;100.00;100870.66;4990724;28;20034;-75
2022/10/26 04:32:54;;;;;;;1999.90;999.90;;;;;;;5.85;100.00;100881.13;4991969;28;20060;-75
2022/10/26 04:35:19;;;;;;;1999.90;999.90;;;;;;;5.86;100.00;100880.25;4992503;28;20070;-74
2022/10/26 04:37:45;;;;;;;1999.90;999.90;;;;;;;5.85;100.00;100875.91;4995435;28;20041;-75
2022/10/26 04:40:10;;;;;;;1999.90;999.90;;;;;;;5.83;100.00;100867.13;4992602;28;20046;-74
2022/10/26 04:42:40;;;;;;;1999.90;999.90;;;;;;;5.84;100.00;100868.88;4993842;28;20050;-75
2022/10/26 04:45:06;;;;;;;1999.90;999.90;;;;;;;5.84;100.00;100861.91;4992544;28;20477;-74
2022/10/26 04:47:31;;;;;;;1999.90;999.90;;;;;;;5.87;100.00;100855.84;4990661;28;20053;-75
2022/10/26 04:49:56;;;;;;;1999.90;999.90;;;;;;;5.86;100.00;100856.69;4992286;28;20029;-74
2022/10/26 04:52:22;;;;;;;1999.90;999.90;;;;;;;5.87;100.00;100851.50;4994209;28;20045;-75
2022/10/26 04:54:47;;;;;;;1999.90;999.90;;;;;;;5.87;100.00;100858.47;4991445;28;20044;-75
2022/10/26 04:57:12;;;;;;;1999.90;999.90;;;;;;;5.87;100.00;100848.88;4992319;28;20026;-75
2022/10/26 04:59:38;;;;;;;1999.90;999.90;;;;;;;5.87;100.00;100855.84;4992283;28;20060;-75
2022/10/26 05:02:03;;;;;;;1999.90;999.90;;;;;;;5.87;100.00;100863.72;4992418;28;20030;-74
2022/10/26 05:04:28;;;;;;;1999.90;999.90;;;;;;;5.89;100.00;100856.75;4993276;28;20103;-74
2022/10/26 05:06:54;;;;;;;1999.90;999.90;;;;;;;5.85;100.00;100855.81;4990795;28;20034;-74
2022/10/26 05:09:19;;;;;;;1999.90;999.90;;;;;;;5.86;100.00;100851.44;4992714;28;20050;-74
2022/10/26 05:11:44;;;;;;;1999.90;999.90;;;;;;;5.92;100.00;100852.47;4992790;28;20378;-74
2022/10/26 05:14:11;;;;;;;1999.90;999.90;;;;;;;5.99;100.00;100850.84;4992399;28;20444;-74
2022/10/26 05:16:37;;;;;;;1999.90;999.90;;;;;;;6.03;100.00;100844.81;4992304;28;20527;-74
2022/10/26 05:19:02;;;;;;;1999.90;999.90;;;;;;;6.07;100.00;100840.50;4988753;28;20154;-74
2022/10/26 05:21:28;;;;;;;1999.90;999.90;;;;;;;6.05;100.00;100837.88;4992111;28;20030;-75
2022/10/26 05:23:54;;;;;;;1999.90;999.90;;;;;;;6.03;100.00;100850.06;4992262;28;20128;-74
2022/10/26 05:26:21;;;;;;;1999.90;999.90;;;;;;;6.00;100.00;100849.09;4992081;28;20085;-75
2022/10/26 05:28:46;;;;;;;1999.90;999.90;;;;;;;5.95;100.00;100846.44;4992398;28;20049;-75
2022/10/26 05:31:12;;;;;;;1999.90;999.90;;;;;;;5.95;100.00;100851.66;4992833;28;20044;-74
2022/10/26 05:33:37;;;;;;;1999.90;999.90;;;;;;;5.96;100.00;100858.66;4990853;28;20109;-74
2022/10/26 05:36:03;;;;;;;1999.90;999.90;;;;;;;5.94;100.00;100852.50;4993736;28;20448;-75
2022/10/26 05:38:28;;;;;;;1999.90;999.90;;;;;;;5.92;100.00;100851.56;4992013;28;20061;-74
2022/10/26 05:40:54;;;;;;;1999.90;999.90;;;;;;;5.87;100.00;100843.63;4990833;28;20037;-74
2022/10/26 05:43:21;;;;;;;1999.90;999.90;;;;;;;5.89;100.00;100854.13;4995673;28;20041;-74
2022/10/26 05:45:48;;;;;;;1999.90;999.90;;;;;;;5.90;100.00;100854.16;4997946;28;20047;-74
2022/10/26 05:48:14;;;;;;;1999.90;999.90;;;;;;;5.91;100.00;100861.16;4988469;28;20053;-74
2022/10/26 05:50:39;;;;;;;1999.90;999.90;;;;;;;5.94;100.00;100860.38;4993178;28;20476;-74
2022/10/26 05:53:04;;;;;;;1999.90;999.90;;;;;;;5.95;100.00;100867.38;4993889;28;20030;-74
2022/10/26 05:55:30;;;;;;;1999.90;999.90;;;;;;;5.95;100.00;100872.63;4988082;28;20037;-74
2022/10/26 05:57:56;;;;;;;1999.90;999.90;;;;;;;5.87;100.00;100877.69;4991893;28;20027;-74
2022/10/26 06:00:26;;;;;;;1999.90;999.90;;;;;;;5.82;100.00;100873.22;4989557;28;20106;-74
2022/10/26 06:03:13;;;;;;;1999.90;999.90;;;;;;;5.81;100.00;100876.69;4986644;28;20129;-74
2022/10/26 06:05:55;;;;;;;1999.90;999.90;;;;;;;5.81;100.00;100879.28;4989506;28;20116;-74
2022/10/26 06:08:22;;;;;;;1999.90;999.90;;;;;;;5.77;100.00;100887.97;4988816;28;20065;-74
2022/10/26 06:10:48;;;;;;;1999.90;999.90;;;;;;;5.79;100.00;100883.63;4989876;28;20042;-75
2022/10/26 06:13:14;;;;;;;1999.90;999.90;;;;;;;5.86;100.00;100878.53;4991593;28;20049;-74
2022/10/26 06:16:15;;;;;;;1999.90;999.90;;;;;;;5.92;100.00;100881.28;4991308;28;20036;-74
2022/10/26 06:19:09;;;;;;;1999.90;999.90;;;;;;;5.96;100.00;100878.75;4990892;28;20042;-74
2022/10/26 06:21:55;;;;;;;1999.90;999.90;;;;;;;5.98;100.00;100880.53;4989099;28;20049;-74
2022/10/26 06:24:32;;;;;;;1999.90;999.90;;;;;;;6.04;100.00;100875.41;4997922;28;20056;-74
2022/10/26 06:27:27;;;;;;;1999.90;999.90;;;;;;;6.12;100.00;100884.28;4991135;28;20042;-74
2022/10/26 06:30:10;;;;;;;1999.90;999.90;;;;;;;6.22;100.00;100885.31;4987819;28;20046;-74
2022/10/26 06:32:37;;;;;;;1999.90;999.90;;;;;;;6.29;100.00;100889.81;4996752;28;20105;-74
2022/10/26 06:35:15;;;;;;;1999.90;999.90;;;;;;;6.41;100.00;100890.88;4995724;28;20042;-74
2022/10/26 06:37:44;;;;;;;1999.90;999.90;;;;;;;6.41;100.00;100899.63;4988355;28;20042;-74
2022/10/26 06:40:12;;;;;;;1999.90;999.90;;;;;;;6.50;100.00;100888.41;4989652;28;20042;-74
2022/10/26 06:42:37;;;;;;;1999.90;999.90;;;;;;;6.61;100.00;100881.59;4992608;28;20129;-74
2022/10/26 06:45:03;;;;;;;1999.90;999.90;;;;;;;6.75;100.00;100889.66;4994114;28;20125;-74
2022/10/26 06:47:41;;;;;;;1999.90;999.90;;;;;;;6.85;100.00;100893.31;4988965;28;20034;-75
2022/10/26 06:50:37;;;;;;;1999.90;999.90;;;;;;;6.94;100.00;100899.59;4994397;28;20396;-75
2022/10/26 06:53:16;;;;;;;1510.25;759.58;;;;;;;7.09;100.00;100890.16;4992427;28;20053;-75
2022/10/26 06:55:44;;;;;;;62.85;58.72;;;;;;;7.33;100.00;100897.47;4989165;28;20524;-76
2022/10/26 06:58:32;;;;;;;600.22;341.85;;;;;;;7.68;100.00;100897.91;4990327;28;20481;-75
2022/10/26 07:00:57;;;;;;;49.88;45.50;;;;;;;7.72;100.00;100898.81;4986205;28;20104;-74
2022/10/26 07:03:23;;;;;;;42.67;39.53;;;;;;;7.75;100.00;100891.84;4997122;28;20037;-75
2022/10/26 07:05:48;;;;;;;36.65;34.33;;;;;;;7.81;100.00;100897.19;4989399;28;20034;-74
2022/10/26 07:08:14;;;;;;;37.90;35.63;;;;;;;7.87;100.00;100894.63;4989579;28;20328;-75
2022/10/26 07:10:41;;;;;;;42.38;39.70;;;;;;;7.90;100.00;100899.91;5004281;28;20559;-74
2022/10/26 07:13:07;;;;;;;46.92;43.80;;;;;;;8.02;100.00;100901.78;4994281;28;20039;-75
2022/10/26 07:15:34;;;;;;;40.47;37.97;;;;;;;8.15;100.00;100894.00;4994631;28;20030;-75
2022/10/26 07:18:00;;;;;;;44.80;41.70;;;;;;;8.29;100.00;100902.91;4994079;28;20034;-75
2022/10/26 07:20:25;;;;;;;46.58;42.42;;;;;;;8.46;100.00;100896.09;4993255;28;20417;-75
2022/10/26 07:22:52;;;;;;;42.85;39.53;;;;;;;8.65;100.00;100896.25;4994707;28;20050;-74
2022/10/26 07:25:18;;;;;;;40.10;37.60;;;;;;;8.81;100.00;100902.50;4993245;28;20038;-75
2022/10/26 07:27:43;;;;;;;42.75;39.53;;;;;;;8.93;100.00;100897.28;4994604;28;20121;-75
2022/10/26 07:30:09;;;;;;;44.78;40.65;;;;;;;9.01;100.00;100895.59;4994720;28;20385;-75
2022/10/26 07:32:34;;;;;;;40.30;37.40;;;;;;;9.09;100.00;100896.53;4994443;28;20413;-75
2022/10/26 07:34:59;;;;;;;40.72;37.97;;;;;;;9.14;100.00;100900.09;4994437;28;20129;-74
2022/10/26 07:37:25;;;;;;;41.72;39.13;;;;;;;9.14;100.00;100894.81;5000501;28;20062;-74
2022/10/26 07:39:50;;;;;;;40.13;37.78;;;;;;;9.19;100.00;100902.72;4993552;28;20119;-75
2022/10/26 07:42:16;;;;;;;41.15;38.63;;;;;;;9.20;100.00;100901.88;4994324;28;20050;-74
2022/10/26 07:44:41;;;;;;;43.60;41.05;;;;;;;9.23;100.00;100901.00;4993947;28;20038;-75
2022/10/26 07:47:06;;;;;;;44.85;41.90;;;;;;;9.28;100.00;100904.53;4993805;28;20042;-74
2022/10/26 07:49:31;;;;;;;42.55;40.03;;;;;;;9.34;100.00;100900.16;4993621;28;20049;-75
2022/10/26 07:51:57;;;;;;;44.00;41.50;;;;;;;9.44;100.00;100899.34;4996570;28;20038;-75
2022/10/26 07:54:22;;;;;;;42.45;39.90;;;;;;;9.50;100.00;100900.22;4995568;28;20049;-75
2022/10/26 07:56:48;;;;;;;40.05;37.70;;;;;;;9.62;100.00;100895.03;4995321;28;20030;-75
2022/10/26 07:59:14;;;;;;;41.13;38.72;;;;;;;9.74;100.00;100891.53;4995149;28;20048;-74
2022/10/26 08:01:39;;;;;;;42.75;40.45;;;;;;;9.86;100.00;100902.13;4993559;28;20437;-75
2022/10/26 08:04:04;;;;;;;42.75;40.15;;;;;;;9.98;100.00;100899.53;4993785;28;20042;-75
2022/10/26 08:06:30;;;;;;;43.08;40.47;;;;;;;10.09;100.00;100895.13;4994591;28;20176;-75
2022/10/26 08:08:55;;;;;;;41.80;39.60;;;;;;;10.19;100.00;100903.06;4992447;28;20469;-75
2022/10/26 08:11:20;;;;;;;39.25;37.05;;;;;;;10.32;100.00;100894.31;4993889;28;20038;-75
2022/10/26 08:13:46;;;;;;;43.42;41.13;;;;;;;10.43;100.00;100907.53;4992401;28;20456;-75
2022/10/26 08:16:11;;;;;;;41.72;39.47;;;;;;;10.56;100.00;100908.38;4992434;28;20109;-75
2022/10/26 08:18:37;;;;;;;41.50;39.25;;;;;;;10.68;100.00;100903.09;4992755;28;20034;-75
2022/10/26 08:21:05;;;;;;;42.80;40.38;;;;;;;10.80;100.00;100902.25;4993418;28;20038;-75
2022/10/26 08:23:31;;;;;;;43.70;40.95;;;;;;;10.91;100.00;100901.31;4990057;28;20564;-75
2022/10/26 08:25:58;;;;;;;44.10;41.78;;;;;;;11.07;100.00;100907.44;4991691;28;20485;-75
2022/10/26 08:28:23;;;;;;;39.85;37.38;;;;;;;11.10;100.00;100903.94;4990564;28;20049;-75
2022/10/26 08:30:49;;;;;;;40.67;38.28;;;;;;;11.20;100.00;100900.38;4989769;28;20026;-75
2022/10/26 08:33:14;;;;;;;43.40;41.00;;;;;;;11.26;100.00;100903.00;4991875;28;20052;-74
2022/10/26 08:35:40;;;;;;;40.38;38.17;;;;;;;11.29;100.00;100905.66;4991586;28;20117;-75
2022/10/26 08:38:05;;;;;;;45.05;42.55;;;;;;;11.41;100.00;100902.94;4991893;28;20061;-75
2022/10/26 08:40:33;;;;;;;42.85;40.55;;;;;;;11.59;100.00;100899.34;4991635;28;20656;-75
2022/10/26 08:43:08;;;;;;;43.63;41.22;;;;;;;11.78;100.00;100902.78;4992126;28;20053;-75
2022/10/26 08:45:40;;;;;;;43.08;40.65;;;;;;;11.92;100.00;100886.91;4988263;28;20034;-75
2022/10/26 08:48:12;;;;;;;41.22;39.03;;;;;;;12.05;100.00;100890.31;4992748;28;20034;-74
2022/10/26 08:50:48;;;;;;;42.85;40.53;;;;;;;12.16;100.00;100891.16;4993039;28;20030;-74
2022/10/26 08:53:28;;;;;;;43.97;41.60;;;;;;;12.27;100.00;100885.78;4991602;28;20117;-75
2022/10/26 08:56:13;;;;;;;48.55;45.50;;;;;;;12.46;100.00;100889.16;4992223;28;20089;-75
2022/10/26 08:58:45;;;;;;;48.83;46.22;;;;;;;12.53;100.00;100888.22;4992984;28;20401;-74
2022/10/26 09:01:11;;;;;;;1999.90;999.90;;;;;;;12.57;100.00;100887.28;4992641;28;20314;-74
2022/10/26 09:03:36;;;;;;;1999.90;999.90;;;;;;;12.67;100.00;100891.59;4992768;28;20129;-74
2022/10/26 09:06:30;;;;;;;1999.90;999.90;;;;;;;12.82;100.00;100902.97;4992349;28;20109;-74
2022/10/26 09:09:04;;;;;;;1999.90;999.90;;;;;;;12.96;100.00;100902.81;4997918;28;20116;-74
2022/10/26 09:12:10;;;;;;;1999.90;999.90;;;;;;;13.03;100.00;100900.09;4989219;28;20049;-74
2022/10/26 09:15:03;;;;;;;1999.90;999.90;;;;;;;13.12;100.00;100894.69;4997507;28;20176;-74
2022/10/26 09:17:54;;;;;;;1999.90;999.90;;;;;;;13.21;100.00;100895.50;4990698;28;20046;-74
2022/10/26 09:20:39;;;;;;;1999.90;999.90;;;;;;;13.27;100.00;100893.69;4993690;28;20037;-74
2022/10/26 09:23:26;;;;;;;1999.90;999.90;;;;;;;13.31;100.00;100895.41;5004446;28;20051;-74
2022/10/26 09:25:58;;;;;;;1999.90;999.90;;;;;;;13.37;100.00;100900.63;4990534;28;20093;-74
2022/10/26 09:28:26;;;;;;;1999.90;999.90;;;;;;;13.38;100.00;100893.56;4990423;28;20088;-74
2022/10/26 09:30:51;;;;;;;1999.90;999.90;;;;;;;13.42;100.00;100897.94;4990789;28;20054;-74
2022/10/26 09:33:21;;;;;;;1999.90;999.90;;;;;;;13.49;100.00;100894.31;4989729;28;20436;-74
2022/10/26 09:36:20;;;;;;;1999.90;999.90;;;;;;;13.78;100.00;100891.28;4991656;28;20030;-74
2022/10/26 09:39:00;;;;;;;1999.90;999.90;;;;;;;13.93;100.00;100899.91;4973853;28;20045;-74
2022/10/26 09:41:38;;;;;;;1999.90;999.90;;;;;;;14.00;100.00;100901.59;4999240;28;20045;-74
2022/10/26 09:44:47;;;;;;;1999.90;999.90;;;;;;;14.00;99.81;100899.81;4996744;28;20477;-74
2022/10/26 09:47:37;;;;;;;1999.90;999.90;;;;;;;14.01;100.00;100901.56;4933015;29;20035;-74
2022/10/26 09:50:33;;;;;;;1999.90;999.90;;;;;;;13.97;99.75;100905.16;4988713;28;20034;-74
2022/10/26 09:52:58;;;;;;;1999.90;999.90;;;;;;;13.95;100.00;100909.59;5000793;28;20041;-74
2022/10/26 09:55:26;;;;;;;1999.90;999.90;;;;;;;13.91;100.00;100913.22;4989803;28;20042;-74
2022/10/26 09:57:54;;;;;;;1999.90;999.90;;;;;;;13.89;100.00;100919.44;4991605;28;20608;-74
2022/10/26 10:00:22;;;;;;;1999.90;999.90;;;;;;;13.85;100.00;100913.28;4988029;28;20049;-74
2022/10/26 10:02:57;;;;;;;1999.90;999.90;;;;;;;13.85;100.00;100917.72;4990731;28;20049;-73
2022/10/26 10:05:22;;;;;;;1999.90;999.90;;;;;;;13.88;100.00;100907.06;4992190;28;20424;-73
2022/10/26 10:07:48;;;;;;;1999.90;999.90;;;;;;;13.94;100.00;100913.19;4991549;28;20121;-74
2022/10/26 10:10:16;;;;;;;1999.90;999.90;;;;;;;14.01;99.69;100912.16;4992204;28;20022;-72
2022/10/26 10:12:42;;;;;;;1999.90;999.90;;;;;;;14.10;99.62;100907.66;4991635;28;20049;-73
2022/10/26 10:15:36;;;;;;;1999.90;999.90;;;;;;;14.21;98.25;100913.66;5004994;28;20401;-73
2022/10/26 10:18:02;;;;;;;1999.90;999.90;;;;;;;14.31;98.49;100915.28;4971882;28;20074;-73
2022/10/26 10:20:31;;;;;;;1999.90;999.90;;;;;;;14.37;97.35;100909.88;4989784;28;20023;-73
2022/10/26 10:23:01;;;;;;;1999.90;999.90;;;;;;;14.43;98.39;100904.44;4987669;28;20034;-73
2022/10/26 10:25:32;;;;;;;1999.90;999.90;;;;;;;14.54;97.84;100903.44;4994030;28;20033;-73
2022/10/26 10:27:57;;;;;;;1999.90;999.90;;;;;;;14.61;97.54;100905.09;4992724;28;20385;-73
2022/10/26 10:30:31;;;;;;;1999.90;999.90;;;;;;;14.66;97.25;100897.94;4991415;28;20041;-73
2022/10/26 10:33:06;;;;;;;1999.90;999.90;;;;;;;14.75;95.80;100903.09;4991537;28;20057;-73
2022/10/26 10:35:31;;;;;;;1999.90;999.90;;;;;;;14.77;96.40;100901.25;4990217;28;20045;-73
2022/10/26 10:37:57;;;;;;;1999.90;999.90;;;;;;;14.91;96.00;100901.03;4993267;28;20030;-73
2022/10/26 10:40:29;;;;;;;1999.90;999.90;;;;;;;15.04;94.43;100893.72;4997221;28;20030;-73
2022/10/26 10:43:04;;;;;;;1999.90;999.90;;;;;;;15.15;94.24;100894.38;4987610;28;20489;-73
2022/10/26 10:45:30;;;;;;;1999.90;999.90;;;;;;;15.30;94.01;100891.44;4987397;28;20040;-73
2022/10/26 10:48:10;;;;;;;1999.90;999.90;;;;;;;15.43;93.95;100892.06;4991419;28;20085;-73
2022/10/26 10:50:36;;;;;;;1999.90;999.90;;;;;;;15.50;93.82;100887.47;4992323;28;20030;-73
2022/10/26 10:53:15;;;;;;;1999.90;999.90;;;;;;;15.56;93.22;100882.03;4993876;28;20401;-74
2022/10/26 10:55:45;;;;;;;1999.90;999.90;;;;;;;15.70;93.41;100879.13;5001981;28;20089;-73
2022/10/26 10:58:22;;;;;;;1999.90;999.90;;;;;;;15.74;92.78;100876.34;4998223;28;20035;-73
2022/10/26 11:00:50;;;;;;;1999.90;999.90;;;;;;;15.85;92.52;100889.44;4995385;28;20027;-73
2022/10/26 11:03:23;;;;;;;1999.90;999.90;;;;;;;15.89;92.73;100884.91;5003417;28;20022;-73
2022/10/26 11:06:24;;;;;;;1999.90;999.90;;;;;;;15.91;92.08;100883.97;4994301;28;20053;-72